Weather reports worldwide

Advertisment
La Hoya, Spain (8205): temperature & dewpoint: 11.08.2018 01:00:00 - 17.08.2018 01:00:00 (CEST)La Hoya, Spain (8205): wind speed & gusts: 11.08.2018 01:00:00 - 17.08.2018 01:00:00 (CEST)La Hoya, Spain (8205): wind direction: 11.08.2018 01:00:00 - 17.08.2018 01:00:00 (CEST)La Hoya, Spain (8205): visibility: 11.08.2018 01:00:00 - 17.08.2018 01:00:00 (CEST)La Hoya, Spain (8205): precipitation: 11.08.2018 01:00:00 - 17.08.2018 01:00:00 (CEST)
Date & Time tt [°C] td [°C] ff [km/h] ff [kn] fx [km/h] fx [kn] dd vv [km] rr [mm]
17.08.2018 01:00:00 13,0 5,5 10 5 21 12 WSW 20 0,0
17.08.2018 00:00:00 14,3 6,4 8 4 22 12 W 20 0,0
16.08.2018 23:00:00 16,1 7,0 16 9 37 20 W 20 0,0
16.08.2018 22:00:00 16,8 7,4 25 14 42 23 WSW 20 0,0
16.08.2018 21:00:00 17,6 6,4 22 12 34 19 W 20 0,0
16.08.2018 20:00:00 - - - - - - - - -
16.08.2018 19:00:00 19,1 4,1 18 10 48 26 W 20 0,0
16.08.2018 18:00:00 21,8 4,3 16 8 42 23 W 20 0,0
16.08.2018 17:00:00 21,7 3,8 19 10 47 26 WNW 20 0,0
16.08.2018 16:00:00 21,6 2,9 19 11 35 19 W 20 0,0
16.08.2018 15:00:00 21,0 5,0 16 9 40 21 W 20 0,0
16.08.2018 14:00:00 19,2 5,3 12 6 22 12 W 20 -
16.08.2018 13:00:00 17,4 3,2 8 5 15 8 WSW 20 0,0
16.08.2018 12:00:00 19,2 3,8 9 5 16 9 WNW 12 0,0
16.08.2018 11:00:00 19,2 2,1 6 4 14 8 WNW 20 0,0
16.08.2018 10:00:00 19,1 4,1 6 3 13 7 WNW 20 0,0
16.08.2018 09:00:00 17,4 5,0 1 1 9 5 W 20 0,0
16.08.2018 08:00:00 13,6 2,9 7 4 12 7 S 20 -
16.08.2018 07:00:00 13,9 3,0 8 5 13 7 SSE 20 0,0
16.08.2018 06:00:00 14,1 1,7 9 5 14 7 SSE 20 0,0
16.08.2018 05:00:00 14,8 1,3 8 4 13 7 SE 20 0,0
16.08.2018 04:00:00 14,5 2,5 9 5 14 7 SE 20 0,0
16.08.2018 03:00:00 14,6 2,5 10 5 14 8 ESE 20 0,0
16.08.2018 02:00:00 14,9 2,5 6 3 13 7 ESE 20 -
16.08.2018 01:00:00 14,9 2,5 8 5 12 7 ESE 20 0,0
16.08.2018 00:00:00 15,9 3,4 7 4 14 7 E 20 0,0
15.08.2018 23:00:00 17,5 5,1 10 6 18 10 WSW 20 0,0
15.08.2018 22:00:00 17,9 4,8 11 6 18 10 SW 20 0,0
15.08.2018 21:00:00 19,6 2,5 11 6 29 16 W 20 0,0
15.08.2018 20:00:00 21,0 3,6 16 9 32 18 WNW 20 -
15.08.2018 19:00:00 22,0 4,5 19 10 41 22 WNW 20 0,0
15.08.2018 18:00:00 21,7 5,1 20 11 39 21 WNW 20 0,0
15.08.2018 17:00:00 21,5 5,5 18 10 47 26 WNW 20 0,0
15.08.2018 16:00:00 20,6 3,8 17 9 40 21 WNW 20 0,0
15.08.2018 15:00:00 21,8 3,9 21 11 37 20 WNW 20 0,0
15.08.2018 14:00:00 20,5 7,4 15 8 27 15 W 20 -
15.08.2018 13:00:00 20,4 4,5 11 6 24 13 WNW 20 0,0
15.08.2018 12:00:00 20,3 4,8 12 7 31 17 WNW 20 0,0
15.08.2018 11:00:00 20,0 4,5 11 6 24 13 W 20 0,0
15.08.2018 10:00:00 19,2 2,9 11 6 20 11 W 20 0,0
15.08.2018 09:00:00 17,4 3,6 10 5 18 10 SSW 20 0,0
15.08.2018 08:00:00 14,4 3,6 16 9 22 12 SSW 20 -
15.08.2018 07:00:00 13,2 3,6 13 7 19 11 S 20 0,0
15.08.2018 06:00:00 13,5 3,6 16 8 22 12 SSW 20 0,0
15.08.2018 05:00:00 13,4 4,8 11 6 18 10 S 20 0,0
15.08.2018 04:00:00 13,6 4,5 12 7 18 10 S 20 0,0
15.08.2018 03:00:00 13,7 4,8 11 6 13 7 S 20 0,0
15.08.2018 02:00:00 14,2 5,3 6 3 14 7 SSE 20 -
15.08.2018 01:00:00 14,4 5,0 11 6 22 12 S 20 0,0
15.08.2018 00:00:00 14,0 2,5 16 8 25 13 SE 20 0,0
14.08.2018 23:00:00 14,1 2,7 16 9 22 12 E 20 0,0
14.08.2018 22:00:00 14,5 2,1 10 6 16 9 E 20 0,0
14.08.2018 21:00:00 16,5 3,6 11 6 21 12 E 20 0,0
14.08.2018 20:00:00 18,3 5,8 14 8 27 15 NE 20 -
14.08.2018 19:00:00 19,6 6,7 18 10 33 18 NE 20 0,0
14.08.2018 18:00:00 20,0 7,0 18 10 36 19 NE 20 0,0
14.08.2018 17:00:00 20,5 7,4 15 8 32 17 NE 20 0,0
14.08.2018 16:00:00 20,4 7,7 16 8 34 18 NE 20 0,0
14.08.2018 15:00:00 20,3 7,7 13 7 29 15 NE 20 0,0
14.08.2018 14:00:00 20,0 8,7 13 7 25 13 E 20 -
14.08.2018 13:00:00 19,1 4,8 14 8 22 12 NNE 20 0,0
14.08.2018 12:00:00 19,4 5,1 8 5 19 11 NNE 20 0,0
14.08.2018 11:00:00 19,3 5,8 8 4 21 11 NE 20 0,0
14.08.2018 10:00:00 17,9 4,1 10 5 17 9 ENE 20 0,0
14.08.2018 09:00:00 16,7 3,8 4 2 9 5 NE 20 0,0
14.08.2018 08:00:00 12,1 1,9 6 4 11 6 S 20 -
14.08.2018 07:00:00 11,3 1,3 7 4 13 7 S 20 0,0
14.08.2018 06:00:00 13,0 1,9 10 5 24 13 SSW 20 0,0
14.08.2018 05:00:00 13,2 2,7 13 7 20 11 S 20 0,0
14.08.2018 04:00:00 10,9 2,3 3 1 25 13 SE 20 0,0
14.08.2018 03:00:00 12,6 3,6 16 9 21 12 SE 20 0,0
14.08.2018 02:00:00 12,9 3,8 16 9 25 14 ESE 20 -
14.08.2018 01:00:00 12,8 3,8 16 9 20 11 ESE 20 0,0
14.08.2018 00:00:00 13,2 2,7 10 5 19 11 ESE 20 0,0
13.08.2018 23:00:00 13,9 1,3 6 4 14 8 ESE 20 0,0
13.08.2018 22:00:00 12,7 1,9 5 3 16 8 SW 20 0,0
13.08.2018 21:00:00 17,3 0,0 9 5 24 13 WNW 20 0,0
13.08.2018 20:00:00 19,0 1,5 15 8 30 16 WNW 20 -
13.08.2018 19:00:00 19,9 1,9 13 7 28 15 W 20 0,0
13.08.2018 18:00:00 19,9 1,9 13 7 29 15 WNW 20 0,0
13.08.2018 17:00:00 20,0 -1,7 18 10 32 17 WNW 20 0,0
13.08.2018 16:00:00 19,3 3,0 16 9 29 16 W 20 0,0
13.08.2018 15:00:00 18,4 7,1 16 8 31 17 W 20 0,0
13.08.2018 14:00:00 18,1 10,6 14 8 27 14 W 20 -
13.08.2018 13:00:00 17,2 10,8 10 5 22 12 WNW 20 0,0
13.08.2018 12:00:00 17,3 8,1 14 7 24 13 W 20 0,0
13.08.2018 11:00:00 16,8 6,1 13 7 24 13 W 20 0,0
13.08.2018 10:00:00 16,5 4,5 14 8 21 11 WSW 20 0,0
13.08.2018 09:00:00 15,4 3,2 12 6 19 11 SW 20 0,0
13.08.2018 08:00:00 13,2 2,7 15 8 21 11 SW 20 -
13.08.2018 07:00:00 13,3 1,1 16 9 21 11 SSW 20 0,0
13.08.2018 06:00:00 13,5 -0,5 15 8 26 14 SW 20 0,0
13.08.2018 05:00:00 13,0 -1,7 10 5 21 12 SW 20 0,0
13.08.2018 04:00:00 14,2 -2,2 14 7 18 10 SSW 20 0,0
13.08.2018 03:00:00 14,3 3,9 11 6 20 11 SSW 20 0,0
13.08.2018 02:00:00 12,2 2,9 6 4 21 12 SSW 20 -
13.08.2018 01:00:00 12,9 5,6 12 7 17 9 ESE 20 0,0
13.08.2018 00:00:00 13,4 4,3 9 5 15 8 SSE 20 0,0
12.08.2018 23:00:00 14,5 7,6 10 5 18 10 W 20 0,0
12.08.2018 22:00:00 15,7 7,1 13 7 33 18 WSW 20 0,0
12.08.2018 21:00:00 17,7 2,1 22 12 36 19 WSW 20 0,0
12.08.2018 20:00:00 18,9 3,4 21 11 46 25 WSW 20 -
12.08.2018 19:00:00 20,9 3,6 25 13 47 25 WSW 20 0,0
12.08.2018 18:00:00 19,9 4,8 29 15 53 29 WSW 20 0,0
12.08.2018 17:00:00 21,5 5,5 26 14 54 29 W 20 0,0
12.08.2018 16:00:00 21,0 6,8 25 14 48 26 WSW 20 0,0
12.08.2018 15:00:00 20,9 7,1 23 12 46 25 WSW 20 0,0
12.08.2018 14:00:00 21,0 5,0 24 13 44 24 W 20 -
12.08.2018 13:00:00 19,0 6,4 22 12 39 21 W 20 0,0
12.08.2018 12:00:00 20,1 6,8 18 10 35 19 W 20 0,0
12.08.2018 11:00:00 20,1 7,4 17 9 36 20 W 20 0,0
12.08.2018 10:00:00 19,0 6,8 20 11 35 19 SW 20 0,0
12.08.2018 09:00:00 18,0 6,8 20 11 35 19 SW 20 0,0
12.08.2018 08:00:00 16,4 6,5 20 11 30 16 SW 20 -
12.08.2018 07:00:00 15,7 6,4 16 8 32 18 SSW 20 0,0
12.08.2018 06:00:00 15,4 6,4 16 8 23 12 SSW 20 0,0
12.08.2018 05:00:00 16,6 5,3 16 9 26 14 SW 20 0,0
12.08.2018 04:00:00 15,6 5,8 15 8 21 11 SSW 20 0,0
12.08.2018 03:00:00 14,7 5,1 14 8 20 11 SSW 20 0,0
12.08.2018 02:00:00 14,0 4,6 11 6 14 7 SSW 20 -
12.08.2018 01:00:00 15,1 3,2 9 5 18 10 S 20 0,0
12.08.2018 00:00:00 15,1 2,9 14 8 20 11 S 20 0,0
11.08.2018 23:00:00 14,9 5,5 10 6 16 9 SSW 20 0,0
11.08.2018 22:00:00 16,3 5,3 12 6 17 9 SSW 20 0,0
11.08.2018 21:00:00 19,3 6,1 10 6 26 14 W 20 0,0
11.08.2018 20:00:00 20,9 5,6 14 7 30 16 WNW 20 -
11.08.2018 19:00:00 21,2 5,5 15 8 34 18 W 20 0,0
11.08.2018 18:00:00 21,5 6,5 17 9 32 18 WNW 20 0,0
11.08.2018 17:00:00 21,3 5,9 15 8 37 20 WNW 20 0,0
11.08.2018 16:00:00 22,4 4,5 12 7 37 20 N 20 0,0
11.08.2018 15:00:00 21,4 6,1 10 5 29 16 NNE 20 0,0
11.08.2018 14:00:00 21,0 3,6 11 6 27 15 NNW 20 -
11.08.2018 13:00:00 20,2 0,6 13 7 37 20 S 20 0,0
11.08.2018 12:00:00 19,8 3,0 8 4 24 13 NW 20 0,0
11.08.2018 11:00:00 19,0 1,1 10 5 24 13 WNW 20 0,0
11.08.2018 10:00:00 19,0 1,9 6 3 21 11 SSW 20 0,0
11.08.2018 09:00:00 17,0 1,1 13 7 22 12 SW 20 0,0
11.08.2018 08:00:00 15,4 0,0 18 10 27 15 SW 20 -
11.08.2018 07:00:00 15,3 -0,5 19 10 30 16 WSW 20 0,0
11.08.2018 06:00:00 14,6 0,0 19 11 27 15 SW 20 0,0
11.08.2018 05:00:00 13,3 1,9 14 7 29 16 SW 20 0,0
11.08.2018 04:00:00 15,7 1,5 18 10 35 19 S 20 0,0
11.08.2018 03:00:00 14,1 3,8 18 10 25 14 SE 20 0,0
11.08.2018 02:00:00 13,7 3,8 21 11 27 15 ESE 20 -
11.08.2018 01:00:00 14,0 4,3 20 11 29 15 E 20 0,0

tt = temperature
td = dewpoint
ff = wind speed
fx = gusts
dd = wind direction
vv = visibility
rr = precipitation

Next stations